Relief, North Carolina
Current Conditions -  °F | °C
As of 10:55 PM on Sunday 23 Nov 2014 (Local Time) from K0A9 Reporting Station
Broken Clouds Broken Clouds  
Wind Chill: 52°   Ceiling: 7500
Heat Index: 52°   Visibility: 10mi
Dew Point: 48°   Wind: 6mph
Humidity: 88%   Direction: NA
Pressure: 29.64"   Gusts: NA
Location:  35.955°N, 82.2044°W
Report Text: K0A9 240355Z AUTO VRB05KT 10SM BKN075 11/09 A2964 RMK
Loading
Personal Weather Stations






























Interactive Weather Map New forecast layout! Learn more

10-Day Weather Forecast

Advertisements
Track Severe Weather on mobile